Terminal Aerodrome Forecast
Issued by NWS Bismarck, ND

Home | Current Version | Previous Version | Graphics & Text | Print | Product List | Glossary On
Versions: 1 2 3 4 5 6 7 8 9 10 11 12 13 14 15 16 17 18 19 20
062
FTUS43 KBIS 290526
TAFISN
TAF
KISN 290526Z 2906/3006 VRB03KT 3SM BR SKC
      TEMPO 2908/2912 1/2SM FG BKN005
     FM291400 24004KT 6SM BR FEW200
     FM291700 26009KT P6SM SKC
     FM300200 25005KT P6SM FEW250=

USA.gov is the U.S. government's official web portal to all federal, state and local government web resources and services.